sensor_id;sensor_type;location;lat;lon;timestamp;pressure;altitude;pressure_sealevel;temperature;humidity
43364;BME280;40636;52.424;-1.948;2023-12-20T00:01:58;100527.88;;;5.49;82.58
43364;BME280;40636;52.424;-1.948;2023-12-20T00:04:25;100524.47;;;5.50;82.65
43364;BME280;40636;52.424;-1.948;2023-12-20T00:06:52;100512.47;;;5.52;82.87
43364;BME280;40636;52.424;-1.948;2023-12-20T00:09:19;100511.59;;;5.51;82.76
43364;BME280;40636;52.424;-1.948;2023-12-20T00:11:45;100504.75;;;5.52;82.66
43364;BME280;40636;52.424;-1.948;2023-12-20T00:14:12;100500.47;;;5.52;82.97
43364;BME280;40636;52.424;-1.948;2023-12-20T00:16:39;100500.53;;;5.55;82.69
43364;BME280;40636;52.424;-1.948;2023-12-20T00:19:06;100501.38;;;5.56;82.82
43364;BME280;40636;52.424;-1.948;2023-12-20T00:21:34;100504.84;;;5.56;82.88
43364;BME280;40636;52.424;-1.948;2023-12-20T00:24:01;100501.38;;;5.56;82.78
43364;BME280;40636;52.424;-1.948;2023-12-20T00:26:28;100503.94;;;5.54;82.84
43364;BME280;40636;52.424;-1.948;2023-12-20T00:28:55;100501.31;;;5.51;82.89
43364;BME280;40636;52.424;-1.948;2023-12-20T00:31:21;100497.88;;;5.52;82.78
43364;BME280;40636;52.424;-1.948;2023-12-20T00:33:48;100503.03;;;5.52;82.41
43364;BME280;40636;52.424;-1.948;2023-12-20T00:36:15;100500.50;;;5.54;83.02
43364;BME280;40636;52.424;-1.948;2023-12-20T00:38:42;100508.25;;;5.55;82.70
43364;BME280;40636;52.424;-1.948;2023-12-20T00:41:09;100506.50;;;5.54;82.69
43364;BME280;40636;52.424;-1.948;2023-12-20T00:43:36;100515.97;;;5.55;82.87
43364;BME280;40636;52.424;-1.948;2023-12-20T00:46:03;100517.72;;;5.56;82.75
43364;BME280;40636;52.424;-1.948;2023-12-20T00:48:30;100515.16;;;5.56;82.90
43364;BME280;40636;52.424;-1.948;2023-12-20T00:50:57;100507.44;;;5.58;83.08
43364;BME280;40636;52.424;-1.948;2023-12-20T00:53:24;100517.78;;;5.59;82.85
43364;BME280;40636;52.424;-1.948;2023-12-20T00:55:51;100513.47;;;5.58;83.05
43364;BME280;40636;52.424;-1.948;2023-12-20T00:58:18;100516.03;;;5.58;83.06
43364;BME280;40636;52.424;-1.948;2023-12-20T01:00:44;100516.03;;;5.58;82.86
43364;BME280;40636;52.424;-1.948;2023-12-20T01:03:12;100509.22;;;5.60;82.99
43364;BME280;40636;52.424;-1.948;2023-12-20T01:05:39;100513.56;;;5.63;82.86
43364;BME280;40636;52.424;-1.948;2023-12-20T01:08:06;100518.78;;;5.66;83.02
43364;BME280;40636;52.424;-1.948;2023-12-20T01:10:33;100502.50;;;5.68;83.04
43364;BME280;40636;52.424;-1.948;2023-12-20T01:13:00;100504.22;;;5.69;83.07
43364;BME280;40636;52.424;-1.948;2023-12-20T01:15:27;100504.22;;;5.69;82.72
43364;BME280;40636;52.424;-1.948;2023-12-20T01:17:54;100493.94;;;5.69;82.63
43364;BME280;40636;52.424;-1.948;2023-12-20T01:20:20;100489.59;;;5.67;82.47
43364;BME280;40636;52.424;-1.948;2023-12-20T01:22:47;100496.44;;;5.66;82.89
43364;BME280;40636;52.424;-1.948;2023-12-20T01:25:14;100484.38;;;5.64;82.65
43364;BME280;40636;52.424;-1.948;2023-12-20T01:27:41;100477.47;;;5.63;82.62
43364;BME280;40636;52.424;-1.948;2023-12-20T01:30:08;100474.94;;;5.64;82.70
43364;BME280;40636;52.424;-1.948;2023-12-20T01:32:35;100465.44;;;5.62;82.40
43364;BME280;40636;52.424;-1.948;2023-12-20T01:35:02;100478.28;;;5.60;82.64
43364;BME280;40636;52.424;-1.948;2023-12-20T01:37:29;100471.41;;;5.59;82.95
43364;BME280;40636;52.424;-1.948;2023-12-20T01:39:56;100473.09;;;5.59;82.72
43364;BME280;40636;52.424;-1.948;2023-12-20T01:42:23;100475.69;;;5.59;82.74
43364;BME280;40636;52.424;-1.948;2023-12-20T01:44:50;100475.69;;;5.59;82.71
43364;BME280;40636;52.424;-1.948;2023-12-20T01:47:17;100476.59;;;5.61;83.14
43364;BME280;40636;52.424;-1.948;2023-12-20T01:49:44;100479.16;;;5.61;83.08
43364;BME280;40636;52.424;-1.948;2023-12-20T01:52:11;100480.88;;;5.60;82.78
43364;BME280;40636;52.424;-1.948;2023-12-20T01:54:40;100470.56;;;5.60;82.85
43364;BME280;40636;52.424;-1.948;2023-12-20T01:57:09;100477.38;;;5.58;83.01
43364;BME280;40636;52.424;-1.948;2023-12-20T01:59:39;100475.69;;;5.59;83.14
43364;BME280;40636;52.424;-1.948;2023-12-20T02:02:07;100473.94;;;5.58;83.06
43364;BME280;40636;52.424;-1.948;2023-12-20T02:04:34;100473.94;;;5.58;83.20
43364;BME280;40636;52.424;-1.948;2023-12-20T02:07:02;100470.53;;;5.59;83.20
43364;BME280;40636;52.424;-1.948;2023-12-20T02:09:30;100468.78;;;5.58;83.29
43364;BME280;40636;52.424;-1.948;2023-12-20T02:11:57;100463.66;;;5.59;83.35
43364;BME280;40636;52.424;-1.948;2023-12-20T02:14:24;100456.78;;;5.58;83.40
43364;BME280;40636;52.424;-1.948;2023-12-20T02:16:51;100455.06;;;5.59;83.25
43364;BME280;40636;52.424;-1.948;2023-12-20T02:19:17;100452.47;;;5.57;83.15
43364;BME280;40636;52.424;-1.948;2023-12-20T02:21:46;100451.59;;;5.57;83.31
43364;BME280;40636;52.424;-1.948;2023-12-20T02:24:12;100438.69;;;5.55;83.31
43364;BME280;40636;52.424;-1.948;2023-12-20T02:26:40;100449.00;;;5.55;82.95
43364;BME280;40636;52.424;-1.948;2023-12-20T02:29:11;100460.19;;;5.57;83.52
43364;BME280;40636;52.424;-1.948;2023-12-20T02:31:38;100456.75;;;5.57;83.45
43364;BME280;40636;52.424;-1.948;2023-12-20T02:34:05;100459.28;;;5.55;83.46
43364;BME280;40636;52.424;-1.948;2023-12-20T02:36:32;100452.41;;;5.54;83.40
43364;BME280;40636;52.424;-1.948;2023-12-20T02:38:59;100460.16;;;5.56;83.82
43364;BME280;40636;52.424;-1.948;2023-12-20T02:41:26;100447.28;;;5.56;83.69
43364;BME280;40636;52.424;-1.948;2023-12-20T02:43:53;100455.84;;;5.55;83.56
43364;BME280;40636;52.424;-1.948;2023-12-20T02:46:20;100457.56;;;5.54;83.72
43364;BME280;40636;52.424;-1.948;2023-12-20T02:48:46;100467.00;;;5.54;83.68
43364;BME280;40636;52.424;-1.948;2023-12-20T02:51:14;100459.28;;;5.55;83.82
43364;BME280;40636;52.424;-1.948;2023-12-20T02:53:41;100461.00;;;5.55;83.66
43364;BME280;40636;52.424;-1.948;2023-12-20T02:56:09;100466.13;;;5.53;83.60
43364;BME280;40636;52.424;-1.948;2023-12-20T02:58:35;100461.00;;;5.55;83.90
43364;BME280;40636;52.424;-1.948;2023-12-20T03:01:02;100454.16;;;5.57;83.79
43364;BME280;40636;52.424;-1.948;2023-12-20T03:03:29;100457.66;;;5.59;83.79
43364;BME280;40636;52.424;-1.948;2023-12-20T03:05:56;100451.66;;;5.60;83.92
43364;BME280;40636;52.424;-1.948;2023-12-20T03:08:23;100443.09;;;5.62;83.70
43364;BME280;40636;52.424;-1.948;2023-12-20T03:10:50;100448.31;;;5.65;83.91
43364;BME280;40636;52.424;-1.948;2023-12-20T03:13:17;100441.56;;;5.72;84.22
43364;BME280;40636;52.424;-1.948;2023-12-20T03:15:45;100439.91;;;5.76;83.86
43364;BME280;40636;52.424;-1.948;2023-12-20T03:18:12;100443.47;;;5.81;83.85
43364;BME280;40636;52.424;-1.948;2023-12-20T03:20:38;100442.69;;;5.85;83.99
43364;BME280;40636;52.424;-1.948;2023-12-20T03:23:07;100428.97;;;5.87;83.98
43364;BME280;40636;52.424;-1.948;2023-12-20T03:25:34;100435.00;;;5.88;83.54
43364;BME280;40636;52.424;-1.948;2023-12-20T03:28:01;100428.97;;;5.87;83.95
43364;BME280;40636;52.424;-1.948;2023-12-20T03:30:27;100428.97;;;5.87;83.55
43364;BME280;40636;52.424;-1.948;2023-12-20T03:32:54;100418.69;;;5.89;83.52
43364;BME280;40636;52.424;-1.948;2023-12-20T03:35:21;100427.31;;;5.89;83.53
43364;BME280;40636;52.424;-1.948;2023-12-20T03:37:48;100433.28;;;5.88;83.84
43364;BME280;40636;52.424;-1.948;2023-12-20T03:40:15;100433.38;;;5.91;83.59
43364;BME280;40636;52.424;-1.948;2023-12-20T03:42:42;100421.41;;;5.95;83.79
43364;BME280;40636;52.424;-1.948;2023-12-20T03:45:09;100424.91;;;5.98;83.86
43364;BME280;40636;52.424;-1.948;2023-12-20T03:47:36;100422.38;;;6.01;83.86
43364;BME280;40636;52.424;-1.948;2023-12-20T03:50:03;100421.56;;;6.04;83.44
43364;BME280;40636;52.424;-1.948;2023-12-20T03:52:30;100431.88;;;6.04;83.72
43364;BME280;40636;52.424;-1.948;2023-12-20T03:54:57;100427.56;;;6.03;83.57
43364;BME280;40636;52.424;-1.948;2023-12-20T03:57:23;100429.25;;;6.02;83.29
43364;BME280;40636;52.424;-1.948;2023-12-20T03:59:50;100438.72;;;6.03;83.46
43364;BME280;40636;52.424;-1.948;2023-12-20T04:02:17;100422.44;;;6.06;83.51
43364;BME280;40636;52.424;-1.948;2023-12-20T04:04:44;100438.84;;;6.11;83.85
43364;BME280;40636;52.424;-1.948;2023-12-20T04:07:11;100435.50;;;6.17;83.71
43364;BME280;40636;52.424;-1.948;2023-12-20T04:09:38;100444.19;;;6.22;83.76
43364;BME280;40636;52.424;-1.948;2023-12-20T04:12:07;100433.97;;;6.28;83.96
43364;BME280;40636;52.424;-1.948;2023-12-20T04:14:34;100435.78;;;6.35;83.69
43364;BME280;40636;52.424;-1.948;2023-12-20T04:17:01;100440.22;;;6.41;83.93
43364;BME280;40636;52.424;-1.948;2023-12-20T04:19:28;100442.03;;;6.46;83.80
43364;BME280;40636;52.424;-1.948;2023-12-20T04:21:54;100437.81;;;6.53;83.92
43364;BME280;40636;52.424;-1.948;2023-12-20T04:24:21;100432.72;;;6.57;83.94
43364;BME280;40636;52.424;-1.948;2023-12-20T04:26:49;100426.78;;;6.63;83.72
43364;BME280;40636;52.424;-1.948;2023-12-20T04:29:15;100432.84;;;6.66;83.56
43364;BME280;40636;52.424;-1.948;2023-12-20T04:31:42;100430.31;;;6.70;83.32
43364;BME280;40636;52.424;-1.948;2023-12-20T04:34:09;100434.66;;;6.74;83.24
43364;BME280;40636;52.424;-1.948;2023-12-20T04:36:36;100420.94;;;6.78;83.29
43364;BME280;40636;52.424;-1.948;2023-12-20T04:39:03;100407.22;;;6.82;83.20
43364;BME280;40636;52.424;-1.948;2023-12-20T04:41:30;100405.56;;;6.87;83.27
43364;BME280;40636;52.424;-1.948;2023-12-20T04:43:57;100403.00;;;6.88;82.73
43364;BME280;40636;52.424;-1.948;2023-12-20T04:46:23;100401.31;;;6.90;83.20
43364;BME280;40636;52.424;-1.948;2023-12-20T04:48:50;100416.81;;;6.92;82.82
43364;BME280;40636;52.424;-1.948;2023-12-20T04:51:17;100394.44;;;6.92;83.02
43364;BME280;40636;52.424;-1.948;2023-12-20T04:53:44;100410.03;;;6.95;82.78
43364;BME280;40636;52.424;-1.948;2023-12-20T04:56:11;100390.22;;;6.96;82.77
43364;BME280;40636;52.424;-1.948;2023-12-20T04:58:38;100393.69;;;6.96;82.84
43364;BME280;40636;52.424;-1.948;2023-12-20T05:01:09;100399.72;;;6.98;82.90
43364;BME280;40636;52.424;-1.948;2023-12-20T05:03:36;100386.84;;;7.00;83.39
43364;BME280;40636;52.424;-1.948;2023-12-20T05:06:03;100386.84;;;7.00;82.89
43364;BME280;40636;52.424;-1.948;2023-12-20T05:08:30;100384.28;;;7.03;83.33
43364;BME280;40636;52.424;-1.948;2023-12-20T05:10:57;100400.66;;;7.04;83.03
43364;BME280;40636;52.424;-1.948;2023-12-20T05:13:24;100392.91;;;7.04;83.08
43364;BME280;40636;52.424;-1.948;2023-12-20T05:16:07;100396.34;;;7.04;83.58
43364;BME280;40636;52.424;-1.948;2023-12-20T05:18:35;100394.63;;;7.05;83.32
43364;BME280;40636;52.424;-1.948;2023-12-20T05:21:02;100383.44;;;7.04;82.78
43364;BME280;40636;52.424;-1.948;2023-12-20T05:23:29;100389.47;;;7.05;82.92
43364;BME280;40636;52.424;-1.948;2023-12-20T05:25:56;100394.63;;;7.03;82.94
43364;BME280;40636;52.424;-1.948;2023-12-20T05:28:22;100393.75;;;7.03;83.31
43364;BME280;40636;52.424;-1.948;2023-12-20T05:30:49;100392.00;;;7.02;83.61
43364;BME280;40636;52.424;-1.948;2023-12-20T05:33:16;100388.56;;;7.01;82.98
43364;BME280;40636;52.424;-1.948;2023-12-20T05:35:43;100396.28;;;7.00;83.26
43364;BME280;40636;52.424;-1.948;2023-12-20T05:38:10;100396.25;;;6.96;83.06
43364;BME280;40636;52.424;-1.948;2023-12-20T05:40:37;100395.41;;;6.96;83.22
43364;BME280;40636;52.424;-1.948;2023-12-20T05:43:04;100382.47;;;6.96;83.35
43364;BME280;40636;52.424;-1.948;2023-12-20T05:45:31;100385.03;;;6.94;83.59
43364;BME280;40636;52.424;-1.948;2023-12-20T05:47:58;100397.03;;;6.92;83.56
43364;BME280;40636;52.424;-1.948;2023-12-20T05:50:25;100400.47;;;6.91;83.41
43364;BME280;40636;52.424;-1.948;2023-12-20T05:52:52;100403.91;;;6.92;83.70
43364;BME280;40636;52.424;-1.948;2023-12-20T05:55:18;100385.81;;;6.90;83.48
43364;BME280;40636;52.424;-1.948;2023-12-20T05:57:45;100384.97;;;6.91;83.86
43364;BME280;40636;52.424;-1.948;2023-12-20T06:00:13;100390.13;;;6.90;84.03
43364;BME280;40636;52.424;-1.948;2023-12-20T06:02:40;100384.09;;;6.89;84.22
43364;BME280;40636;52.424;-1.948;2023-12-20T06:05:07;100378.03;;;6.86;84.29
43364;BME280;40636;52.424;-1.948;2023-12-20T06:07:33;100375.44;;;6.86;84.19
43364;BME280;40636;52.424;-1.948;2023-12-20T06:10:00;100381.44;;;6.83;84.16
43364;BME280;40636;52.424;-1.948;2023-12-20T06:12:28;100381.41;;;6.82;84.21
43364;BME280;40636;52.424;-1.948;2023-12-20T06:14:55;100385.72;;;6.81;84.31
43364;BME280;40636;52.424;-1.948;2023-12-20T06:17:24;100402.09;;;6.83;84.20
43364;BME280;40636;52.424;-1.948;2023-12-20T06:19:50;100407.22;;;6.82;84.22
43364;BME280;40636;52.424;-1.948;2023-12-20T06:22:17;100408.09;;;6.81;84.05
43364;BME280;40636;52.424;-1.948;2023-12-20T06:24:44;100399.47;;;6.80;84.82
43364;BME280;40636;52.424;-1.948;2023-12-20T06:27:11;100388.28;;;6.81;84.89
43364;BME280;40636;52.424;-1.948;2023-12-20T06:29:38;100387.44;;;6.81;84.69
43364;BME280;40636;52.424;-1.948;2023-12-20T06:32:05;100381.41;;;6.80;84.65
43364;BME280;40636;52.424;-1.948;2023-12-20T06:34:31;100359.88;;;6.81;84.13
43364;BME280;40636;52.424;-1.948;2023-12-20T06:36:59;100353.00;;;6.80;84.37
43364;BME280;40636;52.424;-1.948;2023-12-20T06:39:25;100346.97;;;6.80;84.67
43364;BME280;40636;52.424;-1.948;2023-12-20T06:41:52;100341.78;;;6.80;84.89
43364;BME280;40636;52.424;-1.948;2023-12-20T06:44:19;100342.69;;;6.82;84.85
43364;BME280;40636;52.424;-1.948;2023-12-20T06:46:45;100348.69;;;6.81;84.90
43364;BME280;40636;52.424;-1.948;2023-12-20T06:49:12;100359.88;;;6.81;85.13
43364;BME280;40636;52.424;-1.948;2023-12-20T06:51:39;100362.47;;;6.81;84.76
43364;BME280;40636;52.424;-1.948;2023-12-20T06:54:06;100377.97;;;6.83;85.06
43364;BME280;40636;52.424;-1.948;2023-12-20T06:56:33;100377.97;;;6.83;84.57
43364;BME280;40636;52.424;-1.948;2023-12-20T06:59:00;100374.56;;;6.84;84.45
43364;BME280;40636;52.424;-1.948;2023-12-20T07:01:26;100378.03;;;6.87;84.87
43364;BME280;40636;52.424;-1.948;2023-12-20T07:03:53;100375.47;;;6.89;84.79
43364;BME280;40636;52.424;-1.948;2023-12-20T07:06:20;100369.47;;;6.91;85.18
43364;BME280;40636;52.424;-1.948;2023-12-20T07:08:49;100368.69;;;6.94;85.13
43364;BME280;40636;52.424;-1.948;2023-12-20T07:11:16;100366.13;;;6.97;84.79
43364;BME280;40636;52.424;-1.948;2023-12-20T07:13:43;100363.59;;;7.02;84.77
43364;BME280;40636;52.424;-1.948;2023-12-20T07:16:10;100376.56;;;7.05;85.32
43364;BME280;40636;52.424;-1.948;2023-12-20T07:18:37;100387.78;;;7.08;84.50
43364;BME280;40636;52.424;-1.948;2023-12-20T07:21:04;100379.22;;;7.11;84.60
43364;BME280;40636;52.424;-1.948;2023-12-20T07:23:31;100370.59;;;7.12;84.94
43364;BME280;40636;52.424;-1.948;2023-12-20T07:25:58;100374.94;;;7.13;85.41
43364;BME280;40636;52.424;-1.948;2023-12-20T07:28:24;100374.97;;;7.16;85.03
43364;BME280;40636;52.424;-1.948;2023-12-20T07:30:51;100384.47;;;7.20;84.66
43364;BME280;40636;52.424;-1.948;2023-12-20T07:33:18;100363.84;;;7.24;85.03
43364;BME280;40636;52.424;-1.948;2023-12-20T07:35:45;100370.78;;;7.28;85.10
43364;BME280;40636;52.424;-1.948;2023-12-20T07:38:12;100376.00;;;7.33;85.02
43364;BME280;40636;52.424;-1.948;2023-12-20T07:40:39;100381.19;;;7.35;85.01
43364;BME280;40636;52.424;-1.948;2023-12-20T07:43:06;100384.66;;;7.38;84.26
43364;BME280;40636;52.424;-1.948;2023-12-20T07:45:32;100380.41;;;7.42;84.08
43364;BME280;40636;52.424;-1.948;2023-12-20T07:47:59;100390.75;;;7.43;84.44
43364;BME280;40636;52.424;-1.948;2023-12-20T07:50:26;100391.63;;;7.45;84.70
43364;BME280;40636;52.424;-1.948;2023-12-20T07:52:54;100396.81;;;7.47;83.53
43364;BME280;40636;52.424;-1.948;2023-12-20T07:55:20;100405.47;;;7.50;84.03
43364;BME280;40636;52.424;-1.948;2023-12-20T07:57:47;100417.59;;;7.53;84.44
43364;BME280;40636;52.424;-1.948;2023-12-20T08:00:15;100400.41;;;7.56;83.50
43364;BME280;40636;52.424;-1.948;2023-12-20T08:02:41;100413.38;;;7.61;83.97
43364;BME280;40636;52.424;-1.948;2023-12-20T08:05:08;100413.41;;;7.66;83.62
43364;BME280;40636;52.424;-1.948;2023-12-20T08:07:35;100395.31;;;7.67;83.78
43364;BME280;40636;52.424;-1.948;2023-12-20T08:10:02;100399.63;;;7.67;83.08
43364;BME280;40636;52.424;-1.948;2023-12-20T08:12:29;100395.31;;;7.66;82.63
43364;BME280;40636;52.424;-1.948;2023-12-20T08:14:56;100386.66;;;7.64;82.83
43364;BME280;40636;52.424;-1.948;2023-12-20T08:17:23;100391.81;;;7.60;83.23
43364;BME280;40636;52.424;-1.948;2023-12-20T08:19:51;100386.63;;;7.59;82.83
43364;BME280;40636;52.424;-1.948;2023-12-20T08:22:18;100389.19;;;7.57;82.76
43364;BME280;40636;52.424;-1.948;2023-12-20T08:24:45;100382.28;;;7.55;82.73
43364;BME280;40636;52.424;-1.948;2023-12-20T08:27:11;100370.19;;;7.52;82.76
43364;BME280;40636;52.424;-1.948;2023-12-20T08:29:38;100364.97;;;7.51;83.63
43364;BME280;40636;52.424;-1.948;2023-12-20T08:32:05;100378.75;;;7.50;83.00
43364;BME280;40636;52.424;-1.948;2023-12-20T08:34:31;100385.66;;;7.51;83.22
43364;BME280;40636;52.424;-1.948;2023-12-20T08:36:58;100384.78;;;7.49;83.42
43364;BME280;40636;52.424;-1.948;2023-12-20T08:39:25;100394.31;;;7.53;83.42
43364;BME280;40636;52.424;-1.948;2023-12-20T08:41:52;100400.41;;;7.56;84.05
43364;BME280;40636;52.424;-1.948;2023-12-20T08:44:19;100404.75;;;7.60;83.98
43364;BME280;40636;52.424;-1.948;2023-12-20T08:46:46;100400.47;;;7.66;84.12
43364;BME280;40636;52.424;-1.948;2023-12-20T08:49:12;100412.59;;;7.70;83.95
43364;BME280;40636;52.424;-1.948;2023-12-20T08:51:39;100424.69;;;7.74;83.44
43364;BME280;40636;52.424;-1.948;2023-12-20T08:54:08;100421.28;;;7.78;83.95
43364;BME280;40636;52.424;-1.948;2023-12-20T08:56:35;100411.81;;;7.78;83.70
43364;BME280;40636;52.424;-1.948;2023-12-20T08:59:02;100410.97;;;7.81;83.45
43364;BME280;40636;52.424;-1.948;2023-12-20T09:01:29;100409.25;;;7.81;83.80
43364;BME280;40636;52.424;-1.948;2023-12-20T09:03:55;100411.00;;;7.84;83.43
43364;BME280;40636;52.424;-1.948;2023-12-20T09:06:23;100406.72;;;7.87;83.87
43364;BME280;40636;52.424;-1.948;2023-12-20T09:08:51;100386.88;;;7.88;83.76
43364;BME280;40636;52.424;-1.948;2023-12-20T09:11:18;100380.00;;;7.88;83.30
43364;BME280;40636;52.424;-1.948;2023-12-20T09:13:46;100380.00;;;7.90;83.61
43364;BME280;40636;52.424;-1.948;2023-12-20T09:16:13;100374.84;;;7.93;83.77
43364;BME280;40636;52.424;-1.948;2023-12-20T09:18:43;100378.34;;;7.97;83.99
43364;BME280;40636;52.424;-1.948;2023-12-20T09:21:10;100370.59;;;8.00;83.18
43364;BME280;40636;52.424;-1.948;2023-12-20T09:23:36;100374.06;;;8.02;83.45
43364;BME280;40636;52.424;-1.948;2023-12-20T09:26:03;100380.13;;;8.04;83.30
43364;BME280;40636;52.424;-1.948;2023-12-20T09:28:30;100379.28;;;8.08;83.97
43364;BME280;40636;52.424;-1.948;2023-12-20T09:30:59;100393.09;;;8.08;83.71
43364;BME280;40636;52.424;-1.948;2023-12-20T09:33:26;100397.44;;;8.11;82.97
43364;BME280;40636;52.424;-1.948;2023-12-20T09:35:53;100408.69;;;8.13;83.62
43364;BME280;40636;52.424;-1.948;2023-12-20T09:38:20;100387.13;;;8.14;82.74
43364;BME280;40636;52.424;-1.948;2023-12-20T09:40:47;100384.56;;;8.17;83.00
43364;BME280;40636;52.424;-1.948;2023-12-20T09:43:15;100389.75;;;8.18;83.23
43364;BME280;40636;52.424;-1.948;2023-12-20T09:45:46;100394.94;;;8.20;83.56
43364;BME280;40636;52.424;-1.948;2023-12-20T09:48:18;100384.59;;;8.23;83.56
43364;BME280;40636;52.424;-1.948;2023-12-20T09:50:49;100384.63;;;8.26;83.79
43364;BME280;40636;52.424;-1.948;2023-12-20T09:53:20;100375.16;;;8.30;83.70
43364;BME280;40636;52.424;-1.948;2023-12-20T09:55:50;100373.44;;;8.32;83.65
43364;BME280;40636;52.424;-1.948;2023-12-20T09:58:17;100375.22;;;8.34;83.14
43364;BME280;40636;52.424;-1.948;2023-12-20T10:00:44;100369.19;;;8.37;83.61
43364;BME280;40636;52.424;-1.948;2023-12-20T10:03:13;100381.28;;;8.38;83.54
43364;BME280;40636;52.424;-1.948;2023-12-20T10:05:44;100378.69;;;8.41;83.48
43364;BME280;40636;52.424;-1.948;2023-12-20T10:08:12;100370.94;;;8.42;83.27
43364;BME280;40636;52.424;-1.948;2023-12-20T10:10:39;100363.19;;;8.42;82.75
43364;BME280;40636;52.424;-1.948;2023-12-20T10:13:15;100355.41;;;8.42;82.75
43364;BME280;40636;52.424;-1.948;2023-12-20T10:15:42;100363.19;;;8.44;82.51
43364;BME280;40636;52.424;-1.948;2023-12-20T10:18:09;100354.56;;;8.45;82.90
43364;BME280;40636;52.424;-1.948;2023-12-20T10:20:37;100357.16;;;8.46;83.58
43364;BME280;40636;52.424;-1.948;2023-12-20T10:23:04;100358.03;;;8.48;82.92
43364;BME280;40636;52.424;-1.948;2023-12-20T10:25:31;100356.31;;;8.50;83.71
43364;BME280;40636;52.424;-1.948;2023-12-20T10:28:12;100356.31;;;8.52;83.19
43364;BME280;40636;52.424;-1.948;2023-12-20T10:30:40;100361.53;;;8.55;82.81
43364;BME280;40636;52.424;-1.948;2023-12-20T10:33:08;100367.59;;;8.59;83.32
43364;BME280;40636;52.424;-1.948;2023-12-20T10:35:37;100359.81;;;8.60;83.75
43364;BME280;40636;52.424;-1.948;2023-12-20T10:38:05;100371.06;;;8.62;82.66
43364;BME280;40636;52.424;-1.948;2023-12-20T10:40:35;100367.59;;;8.63;82.64
43364;BME280;40636;52.424;-1.948;2023-12-20T10:43:06;100377.97;;;8.63;83.25
43364;BME280;40636;52.424;-1.948;2023-12-20T10:45:34;100357.25;;;8.65;83.07
43364;BME280;40636;52.424;-1.948;2023-12-20T10:48:02;100347.78;;;8.67;82.82
43364;BME280;40636;52.424;-1.948;2023-12-20T10:50:31;100338.31;;;8.70;82.70
43364;BME280;40636;52.424;-1.948;2023-12-20T10:52:59;100332.28;;;8.73;83.25
43364;BME280;40636;52.424;-1.948;2023-12-20T10:55:27;100334.03;;;8.75;82.84
43364;BME280;40636;52.424;-1.948;2023-12-20T10:58:01;100326.25;;;8.78;83.40
43364;BME280;40636;52.424;-1.948;2023-12-20T11:00:29;100311.59;;;8.82;82.68
43364;BME280;40636;52.424;-1.948;2023-12-20T11:03:01;100315.94;;;8.84;82.98
43364;BME280;40636;52.424;-1.948;2023-12-20T11:08:16;100293.47;;;8.86;83.04
43364;BME280;40636;52.424;-1.948;2023-12-20T11:10:55;100280.53;;;8.86;82.91
43364;BME280;40636;52.424;-1.948;2023-12-20T11:13:34;100264.13;;;8.89;83.23
43364;BME280;40636;52.424;-1.948;2023-12-20T11:16:03;100271.03;;;8.93;83.28
43364;BME280;40636;52.424;-1.948;2023-12-20T11:18:30;100270.19;;;8.96;82.95
43364;BME280;40636;52.424;-1.948;2023-12-20T11:21:04;100262.41;;;9.00;83.40
43364;BME280;40636;52.424;-1.948;2023-12-20T11:23:34;100258.97;;;9.04;83.55
43364;BME280;40636;52.424;-1.948;2023-12-20T11:26:02;100254.66;;;9.06;83.23
43364;BME280;40636;52.424;-1.948;2023-12-20T11:28:29;100266.75;;;9.07;82.93
43364;BME280;40636;52.424;-1.948;2023-12-20T11:30:58;100265.03;;;9.09;83.19
43364;BME280;40636;52.424;-1.948;2023-12-20T11:33:35;100258.97;;;9.09;83.42
43364;BME280;40636;52.424;-1.948;2023-12-20T11:36:13;100266.75;;;9.12;82.95
43364;BME280;40636;52.424;-1.948;2023-12-20T11:38:56;100258.13;;;9.13;82.69
43364;BME280;40636;52.424;-1.948;2023-12-20T11:41:25;100252.94;;;9.14;83.63
43364;BME280;40636;52.424;-1.948;2023-12-20T11:43:55;100234.78;;;9.16;83.18
43364;BME280;40636;52.424;-1.948;2023-12-20T11:46:24;100230.47;;;9.16;83.60
43364;BME280;40636;52.424;-1.948;2023-12-20T11:48:52;100219.25;;;9.19;84.03
43364;BME280;40636;52.424;-1.948;2023-12-20T11:51:19;100204.56;;;9.21;84.31
43364;BME280;40636;52.424;-1.948;2023-12-20T11:53:51;100201.97;;;9.24;83.67
43364;BME280;40636;52.424;-1.948;2023-12-20T11:56:18;100201.13;;;9.28;84.35
43364;BME280;40636;52.424;-1.948;2023-12-20T11:58:45;100195.94;;;9.31;84.13
43364;BME280;40636;52.424;-1.948;2023-12-20T12:01:15;100199.41;;;9.33;84.10
43364;BME280;40636;52.424;-1.948;2023-12-20T12:03:42;100202.84;;;9.35;83.73
43364;BME280;40636;52.424;-1.948;2023-12-20T12:06:09;100195.09;;;9.37;83.93
43364;BME280;40636;52.424;-1.948;2023-12-20T12:08:36;100190.75;;;9.37;84.39
43364;BME280;40636;52.424;-1.948;2023-12-20T12:11:04;100179.53;;;9.38;84.08
43364;BME280;40636;52.424;-1.948;2023-12-20T12:13:31;100183.84;;;9.39;83.57
43364;BME280;40636;52.424;-1.948;2023-12-20T12:15:58;100177.78;;;9.45;84.38
43364;BME280;40636;52.424;-1.948;2023-12-20T12:18:25;100155.31;;;9.48;84.39
43364;BME280;40636;52.424;-1.948;2023-12-20T12:21:00;100157.03;;;9.52;83.46
43364;BME280;40636;52.424;-1.948;2023-12-20T12:23:27;100156.16;;;9.57;83.94
43364;BME280;40636;52.424;-1.948;2023-12-20T12:25:54;100141.44;;;9.59;83.53
43364;BME280;40636;52.424;-1.948;2023-12-20T12:28:26;100136.25;;;9.63;83.27
43364;BME280;40636;52.424;-1.948;2023-12-20T12:30:58;100123.28;;;9.68;83.69
43364;BME280;40636;52.424;-1.948;2023-12-20T12:33:26;100128.44;;;9.74;83.65
43364;BME280;40636;52.424;-1.948;2023-12-20T12:35:53;100116.31;;;9.79;83.02
43364;BME280;40636;52.424;-1.948;2023-12-20T12:38:21;100112.84;;;9.81;83.02
43364;BME280;40636;52.424;-1.948;2023-12-20T12:40:49;100102.47;;;9.85;83.01
43364;BME280;40636;52.424;-1.948;2023-12-20T12:43:16;100106.81;;;9.86;82.79
43364;BME280;40636;52.424;-1.948;2023-12-20T12:45:43;100104.19;;;9.87;82.43
43364;BME280;40636;52.424;-1.948;2023-12-20T12:48:10;100098.16;;;9.87;82.47
43364;BME280;40636;52.424;-1.948;2023-12-20T12:50:37;100095.56;;;9.88;81.99
43364;BME280;40636;52.424;-1.948;2023-12-20T12:53:04;100086.91;;;9.89;81.80
43364;BME280;40636;52.424;-1.948;2023-12-20T12:55:31;100084.28;;;9.91;82.14